createdAt,value
2019-02-09T00:03:57.435Z,11.33
2019-02-09T00:09:52.200Z,12.51
2019-02-09T00:15:47.206Z,11.23
2019-02-09T00:21:42.235Z,12.16
2019-02-09T00:27:37.288Z,11.05
2019-02-09T00:33:32.281Z,12.46
2019-02-09T00:39:27.236Z,9.77
2019-02-09T00:45:22.229Z,12.84
2019-02-09T00:51:17.241Z,9.7
2019-02-09T00:57:12.241Z,11.66
2019-02-09T01:03:07.321Z,13.46
2019-02-09T01:09:02.238Z,10.31
2019-02-09T01:14:57.266Z,10.6
2019-02-09T01:20:52.292Z,10.34
2019-02-09T01:26:47.291Z,10.01
2019-02-09T01:32:42.281Z,10.63
2019-02-09T01:38:37.297Z,10.82
2019-02-09T01:44:32.275Z,9.8
2019-02-09T01:50:27.361Z,14.02
2019-02-09T01:56:22.301Z,13.83
2019-02-09T02:02:17.288Z,8.48
2019-02-09T02:08:12.296Z,8.3
2019-02-09T02:14:07.312Z,9.1
2019-02-09T02:20:02.340Z,10.13
2019-02-09T02:25:57.321Z,8.84
2019-02-09T02:31:52.381Z,6.62
2019-02-09T02:37:47.324Z,12.04
2019-02-09T02:43:42.354Z,7.67
2019-02-09T02:49:37.345Z,7.27
2019-02-09T02:55:32.342Z,11.27
2019-02-09T03:01:27.379Z,8.61
2019-02-09T03:07:22.366Z,8.33
2019-02-09T03:13:17.354Z,9.2
2019-02-09T03:19:12.367Z,8.23
2019-02-09T03:25:07.375Z,8.19
2019-02-09T03:31:02.373Z,8.54
2019-02-09T03:36:57.462Z,6.43
2019-02-09T03:42:52.462Z,10.46
2019-02-09T03:48:47.374Z,7.96
2019-02-09T03:54:42.378Z,10.11
2019-02-09T04:00:37.450Z,6.36
2019-02-09T04:06:32.430Z,9.24
2019-02-09T04:12:27.410Z,8.73
2019-02-09T04:18:22.408Z,9.06
2019-02-09T04:24:17.472Z,9.19
2019-02-09T04:30:12.426Z,10.23
2019-02-09T04:36:07.426Z,9.43
2019-02-09T04:42:02.472Z,8.92
2019-02-09T04:47:57.470Z,11.12
2019-02-09T04:53:52.488Z,11.42
2019-02-09T04:59:47.455Z,7.36
2019-02-09T05:05:42.443Z,9.9
2019-02-09T05:11:37.450Z,11.2
2019-02-09T05:17:32.463Z,6.99
2019-02-09T05:23:27.480Z,9.23
2019-02-09T05:29:22.496Z,9.74
2019-02-09T05:35:17.490Z,9.01
2019-02-09T05:41:12.520Z,12.11
2019-02-09T05:47:07.493Z,8.1
2019-02-09T05:53:02.563Z,7.69
2019-02-09T05:58:57.500Z,8.34
2019-02-09T06:04:52.495Z,9.71
2019-02-09T06:10:47.508Z,10.84
2019-02-09T06:16:42.549Z,8.53
2019-02-09T06:22:37.512Z,13.03
2019-02-09T06:28:32.521Z,9.23
2019-02-09T06:34:27.546Z,7.55
2019-02-09T06:40:22.522Z,9.74
2019-02-09T06:46:17.587Z,9.49
2019-02-09T06:52:12.545Z,13.73
2019-02-09T06:58:07.576Z,13.2
2019-02-09T07:04:02.608Z,14.25
2019-02-09T07:09:57.614Z,14.4
2019-02-09T07:15:52.582Z,12.83
2019-02-09T07:21:47.565Z,15.25
2019-02-09T07:27:42.589Z,13.51
2019-02-09T07:33:37.574Z,13.28
2019-02-09T07:39:32.573Z,15.07
2019-02-09T07:45:27.675Z,8.65
2019-02-09T07:51:22.596Z,13.11
2019-02-09T07:57:17.584Z,13.23
2019-02-09T08:03:12.590Z,15.06
2019-02-09T08:09:07.626Z,17.29
2019-02-09T08:15:02.634Z,19.28
2019-02-09T08:20:57.627Z,18.96
2019-02-09T08:26:52.645Z,18.51
2019-02-09T08:32:47.622Z,19.24
2019-02-09T08:38:42.624Z,25.94
2019-02-09T08:44:37.625Z,29.27
2019-02-09T08:50:32.638Z,33.88
2019-02-09T08:56:27.665Z,21.81
2019-02-09T09:02:22.698Z,27.16
2019-02-09T09:08:17.650Z,26.58
2019-02-09T09:14:12.665Z,27.55
2019-02-09T09:20:07.684Z,25.79
2019-02-09T09:26:02.667Z,26.2
2019-02-09T09:31:57.690Z,36.4
2019-02-09T09:37:52.667Z,40.25
2019-02-09T09:43:47.678Z,37.73
2019-02-09T09:49:42.688Z,31
2019-02-09T09:55:37.687Z,35.63
2019-02-09T10:01:32.705Z,33.77
2019-02-09T10:07:27.686Z,43.51
2019-02-09T10:13:22.706Z,38.09
2019-02-09T10:19:17.706Z,39.7
2019-02-09T10:25:12.727Z,32.46
2019-02-09T10:31:07.738Z,31.79
2019-02-09T10:37:02.713Z,31.3
2019-02-09T10:42:57.733Z,31.06
2019-02-09T10:48:52.731Z,34.67
2019-02-09T10:54:47.737Z,28.96
2019-02-09T11:00:42.754Z,37.23
2019-02-09T11:06:37.815Z,33.77
2019-02-09T11:12:32.762Z,29.89
2019-02-09T11:18:27.808Z,34.22
2019-02-09T11:24:22.760Z,38.09
2019-02-09T11:30:17.806Z,49.8
2019-02-09T11:36:12.774Z,45.83
2019-02-09T11:42:07.796Z,40.78
2019-02-09T11:48:02.779Z,38.09
2019-02-09T11:53:57.797Z,39.6
2019-02-09T11:59:52.805Z,39.98
2019-02-09T12:05:47.820Z,34.58
2019-02-09T12:11:42.810Z,36.7
2019-02-09T12:17:37.814Z,33.33
2019-02-09T12:23:32.814Z,37.86
2019-02-09T12:29:27.824Z,31.96
2019-02-09T12:35:22.871Z,29.45
2019-02-09T12:41:17.877Z,31.42
2019-02-09T12:47:12.876Z,30.37
2019-02-09T12:53:07.890Z,31.7
2019-02-09T12:59:02.877Z,30.05
2019-02-09T13:04:57.850Z,33.72
2019-02-09T13:10:52.886Z,32.85
2019-02-09T13:16:47.881Z,33.1
2019-02-09T13:22:42.875Z,31.96
2019-02-09T13:28:37.870Z,33.73
2019-02-09T13:34:32.881Z,36.64
2019-02-09T13:40:27.901Z,35.71
2019-02-09T13:46:22.885Z,42.06
2019-02-09T13:52:17.914Z,38.28
2019-02-09T13:58:12.905Z,35.67
2019-02-09T14:04:07.933Z,37.32
2019-02-09T14:10:02.929Z,39.32
2019-02-09T14:15:57.927Z,42.68
2019-02-09T14:21:52.909Z,41.66
2019-02-09T14:27:47.946Z,41.68
2019-02-09T14:33:42.940Z,47.6
2019-02-09T14:39:37.965Z,40.3
2019-02-09T14:45:32.954Z,36.37
2019-02-09T14:51:27.943Z,43.77
2019-02-09T14:57:22.946Z,42.83
2019-02-09T15:03:25.654Z,42.11
2019-02-09T15:09:12.977Z,42.79
2019-02-09T15:15:07.981Z,42.49
2019-02-09T15:21:02.970Z,45.55
2019-02-09T15:26:58.029Z,43.41
2019-02-09T15:32:52.978Z,43.78
2019-02-09T15:38:47.969Z,42.81
2019-02-09T15:44:42.992Z,53.5
2019-02-09T15:50:37.997Z,52.47
2019-02-09T15:56:32.992Z,51.07
2019-02-09T16:02:28.094Z,48.09
2019-02-09T16:08:23.034Z,47.29
2019-02-09T16:14:18.053Z,52.63
2019-02-09T16:20:13.045Z,45.7
2019-02-09T16:26:08.061Z,49.83
2019-02-09T16:32:03.050Z,50.39
2019-02-09T16:37:58.095Z,52.33
2019-02-09T16:43:53.031Z,43.62
2019-02-09T16:49:48.079Z,46.58
2019-02-09T16:55:43.048Z,47.51
2019-02-09T17:01:38.071Z,44.7
2019-02-09T17:07:33.048Z,53.32
2019-02-09T17:13:28.157Z,51.88
2019-02-09T17:19:23.120Z,52.14
2019-02-09T17:25:18.057Z,54.66
2019-02-09T17:31:13.087Z,55.9
2019-02-09T17:37:08.103Z,60.66
2019-02-09T17:43:03.143Z,65.81
2019-02-09T17:48:58.085Z,66.6
2019-02-09T17:54:53.163Z,66.26
2019-02-09T18:00:48.109Z,62.82
2019-02-09T18:06:43.099Z,67.85
2019-02-09T18:12:38.118Z,65.98
2019-02-09T18:18:33.112Z,65.92
2019-02-09T18:24:28.193Z,62.98
2019-02-09T18:30:23.166Z,71.47
2019-02-09T18:36:18.149Z,67.67
2019-02-09T18:42:13.198Z,76.25
2019-02-09T18:48:08.181Z,71.69
2019-02-09T18:54:03.194Z,79.02
2019-02-09T18:59:58.156Z,69.33
2019-02-09T19:05:53.162Z,79.13
2019-02-09T19:11:48.210Z,81.31
2019-02-09T19:17:43.198Z,76.03
2019-02-09T19:23:38.188Z,78.06
2019-02-09T19:29:33.174Z,74.19
2019-02-09T19:35:28.211Z,79.83
2019-02-09T19:41:23.262Z,81.42
2019-02-09T19:47:18.209Z,83.94
2019-02-09T19:53:13.220Z,84.71
2019-02-09T19:59:08.274Z,81.93
2019-02-09T20:05:03.232Z,76.95
2019-02-09T20:10:58.223Z,82.38
2019-02-09T20:16:53.240Z,81.76
2019-02-09T20:22:48.248Z,75.49
2019-02-09T20:28:43.232Z,70.71
2019-02-09T20:34:38.273Z,75.84
2019-02-09T20:40:33.231Z,77.89
2019-02-09T20:46:28.297Z,75.97
2019-02-09T20:52:23.239Z,83.77
2019-02-09T20:58:18.264Z,79.05
2019-02-09T21:04:13.308Z,75.88
2019-02-09T21:10:08.316Z,79.31
2019-02-09T21:16:03.317Z,78
2019-02-09T21:21:58.278Z,80.1
2019-02-09T21:27:53.266Z,90.81
2019-02-09T21:33:48.285Z,84
2019-02-09T21:39:43.334Z,76.15
2019-02-09T21:45:44.767Z,86.49
2019-02-09T21:51:33.296Z,86.24
2019-02-09T21:57:28.297Z,84.88
2019-02-09T22:03:23.305Z,85.23
2019-02-09T22:09:18.318Z,75.22
2019-02-09T22:15:13.329Z,68.47
2019-02-09T22:21:08.376Z,76.93
2019-02-09T22:27:03.488Z,76.4
2019-02-09T22:32:58.541Z,77.57
2019-02-09T22:38:53.348Z,79.39
2019-02-09T22:44:48.348Z,83.02
2019-02-09T22:50:43.345Z,70.75
2019-02-09T22:56:38.369Z,67.17
2019-02-09T23:02:33.360Z,64.1
2019-02-09T23:08:28.377Z,63.61
2019-02-09T23:14:23.365Z,60.13
2019-02-09T23:20:18.381Z,69.24
2019-02-09T23:26:13.401Z,63.37
2019-02-09T23:32:08.374Z,67.39
2019-02-09T23:38:03.401Z,68.72
2019-02-09T23:43:58.428Z,64.16
2019-02-09T23:49:54.518Z,65.4
2019-02-09T23:55:48.426Z,71.57
